Thomasboro, Illinois
Current Conditions -  °F | °C
As of 12:10 AM on Saturday 29 Nov 2014 (Local Time) from KTIP Reporting Station
Clear Clear  
Wind Chill: 25°   Ceiling: Unl
Heat Index: 33°   Visibility: 10mi
Dew Point: 30°   Wind: 9mph
Humidity: 89%   Direction: 160°SSE
Pressure: 29.9"   Gusts: NA
Location:  40.24°N, 88.18°W
Report Text: KTIP 290610Z AUTO 16008KT 10SM CLR 01/M01 A2990 RMK AO2 T00051011
Loading
Personal Weather Stations






























Interactive Weather Map New forecast layout! Learn more

10-Day Weather Forecast

Advertisements
Track Severe Weather on mobile